Rossville, Ohio
Current Conditions -  °F | °C
As of 9:53 PM on Wednesday 22 Oct 2014 (Local Time) from KHAO Reporting Station
Overcast Overcast  
Wind Chill: 50°   Ceiling: 2600
Heat Index: 50°   Visibility: 10mi
Dew Point: 41°   Wind: 5mph
Humidity: 71%   Direction: 30°NNE
Pressure: 30.29"   Gusts: NA
Location:  39.4158°N, 84.6488°W
Report Text: KHAO 230153Z AUTO 03004KT 10SM OVC026 10/05 A3029 RMK AO2 SLP261 T01000050
Loading
Personal Weather Stations






























Interactive Weather Map New forecast layout! Learn more

10-Day Weather Forecast

Advertisements
Track Severe Weather on mobile